Terminal Aerodrome Forecast
Issued by NWS Austin/San Antonio, TX

Home | Current Version | Previous Version | Text Only | Print | Product List | Glossary On
Versions: 1 2 3 4 5 6 7 8 9 10 11 12 13 14 15 16 17 18 19 20 21 22 23 24 25 26 27 28 29 30 31 32 33 34 35 36 37
000
FTUS44 KEWX 251122
TAFSAT
TAF
KSAT 251122Z 2512/2618 14009KT P6SM OVC007
     FM251500 15012KT P6SM VCTS BKN015CB
      TEMPO 2515/2519 4SM TSRA BR
     FM251900 16015G30KT 6SM TSRA BKN035CB
     FM260000 14012KT P6SM BKN035=

USA.gov is the U.S. government's official web portal to all federal, state and local government web resources and services.